Kearns, Utah
Current Conditions -  °F | °C
As of 6:53 PM on Thursday 18 Dec 2014 (Local Time) from KSLC Reporting Station
Broken Clouds Broken Clouds  
Wind Chill: 32°   Ceiling: 8500
Heat Index: 36°   Visibility: 10mi
Dew Point: 31°   Wind: 5mph
Humidity: 82%   Direction: 210°SSW
Pressure: 30.17"   Gusts: NA
Location:  40.65°N, 111.96°W
Report Text: KSLC 190153Z 21004KT 10SM SCT075 BKN085 02/M01 A3017 RMK AO2 SLP226 T00221006
Loading
Personal Weather Stations






























Interactive Weather Map New forecast layout! Learn more

10-Day Weather Forecast

Advertisements
Track Severe Weather on mobile